Time;durP1;ratioP1;P1;durP2;ratioP2;P2;SDS_P1;SDS_P2;PMS_P1;PMS_P2;Temp;Humidity;BMP_temperature;BMP_pressure;BME280_temperature;BME280_humidity;BME280_pressure;Samples;Min_cycle;Max_cycle;Signal;HPM_P1;HPM_P2
2021/11/22 00:01:28;;;;;;;47.33;25.23;;;;;;;6.22;67.61;100025.30;126339;1098;104268;-82
2021/11/22 00:03:56;;;;;;;51.50;25.87;;;;;;;6.19;68.07;100030.37;126299;1099;104156;-82
2021/11/22 00:06:24;;;;;;;47.60;26.23;;;;;;;6.15;68.12;100034.52;126351;1098;104264;-83
2021/11/22 00:08:52;;;;;;;49.03;27.07;;;;;;;6.16;68.22;100036.32;126342;1097;104233;-83
2021/11/22 00:11:20;;;;;;;51.10;27.33;;;;;;;6.20;67.97;100040.86;126301;1099;104143;-82
2021/11/22 00:13:48;;;;;;;48.95;27.50;;;;;;;6.22;67.93;100038.33;126309;1099;104149;-83
2021/11/22 00:16:16;;;;;;;49.60;27.10;;;;;;;6.20;68.24;100034.73;126342;1099;104156;-82
2021/11/22 00:18:44;;;;;;;50.80;28.17;;;;;;;6.17;68.11;100037.20;126339;1098;104204;-82
2021/11/22 00:21:12;;;;;;;48.87;28.33;;;;;;;6.13;67.95;100036.18;126371;1099;104153;-83
2021/11/22 00:23:40;;;;;;;50.43;27.73;;;;;;;6.08;68.11;100035.09;126247;1096;104229;-82
2021/11/22 00:26:09;;;;;;;49.57;27.73;;;;;;;6.04;68.15;100035.75;126340;1099;104268;-83
2021/11/22 00:28:37;;;;;;;52.07;26.10;;;;;;;5.99;68.07;100035.54;126356;1095;104201;-83
2021/11/22 00:31:25;;;;;;;49.50;26.73;;;;;;;5.99;68.23;100032.05;126370;1096;104235;-83
2021/11/22 00:33:58;;;;;;;48.33;26.70;;;;;;;6.00;68.57;100026.00;126268;1099;104287;-82
2021/11/22 00:36:47;;;;;;;48.77;27.57;;;;;;;5.94;68.35;100027.48;126294;1099;104162;-82
2021/11/22 00:39:15;;;;;;;50.33;27.00;;;;;;;5.85;68.03;100026.16;126333;1099;104177;-83
2021/11/22 00:41:44;;;;;;;51.80;29.10;;;;;;;5.72;68.37;100025.58;126344;1099;104162;-82
2021/11/22 00:44:12;;;;;;;51.63;29.60;;;;;;;5.61;68.39;100028.48;126271;1099;104303;-82
2021/11/22 00:46:39;;;;;;;55.67;30.77;;;;;;;5.48;68.29;100035.70;126288;1099;104143;-82
2021/11/22 00:49:08;;;;;;;52.47;30.23;;;;;;;5.31;67.83;100045.27;126271;1099;104203;-81
2021/11/22 00:51:36;;;;;;;54.10;28.60;;;;;;;5.16;67.69;100040.22;126354;1096;104147;-82
2021/11/22 00:54:04;;;;;;;51.83;29.27;;;;;;;5.12;68.29;100040.87;126284;1096;104158;-82
2021/11/22 00:56:35;;;;;;;57.87;29.73;;;;;;;5.18;68.69;100048.09;126327;1098;104195;-82
2021/11/22 00:59:04;;;;;;;58.37;31.80;;;;;;;5.27;68.67;100047.68;126348;1099;104336;-81
2021/11/22 01:01:32;;;;;;;54.93;31.33;;;;;;;5.30;68.03;100043.51;126327;1099;104280;-82
2021/11/22 01:04:00;;;;;;;52.17;29.50;;;;;;;5.30;68.20;100042.59;126298;1099;104165;-82
2021/11/22 01:06:28;;;;;;;50.83;29.00;;;;;;;5.30;68.47;100042.59;126337;1099;104139;-81
2021/11/22 01:08:56;;;;;;;53.20;29.30;;;;;;;5.27;68.95;100040.75;126331;1099;104159;-82
2021/11/22 01:11:24;;;;;;;53.83;30.13;;;;;;;5.22;68.37;100040.53;126365;1099;104392;-82
2021/11/22 01:13:53;;;;;;;50.23;28.37;;;;;;;5.17;68.30;100041.10;126240;1099;104146;-82
2021/11/22 01:16:20;;;;;;;51.60;28.13;;;;;;;5.11;68.13;100038.20;126348;1099;104150;-82
2021/11/22 01:18:50;;;;;;;47.10;26.00;;;;;;;5.02;68.27;100036.92;126333;1099;104162;-82
2021/11/22 01:21:19;;;;;;;43.93;23.90;;;;;;;4.95;68.25;100046.94;126331;1099;104155;-83
2021/11/22 01:23:47;;;;;;;48.97;24.83;;;;;;;4.84;68.16;100043.79;126307;1099;104191;-82
2021/11/22 01:26:15;;;;;;;45.80;25.83;;;;;;;4.74;68.52;100047.63;126326;1099;104159;-82
2021/11/22 01:28:43;;;;;;;50.97;27.57;;;;;;;4.68;69.00;100045.59;126318;1099;104162;-82
2021/11/22 01:31:12;;;;;;;49.20;26.87;;;;;;;4.68;68.33;100048.19;126319;1099;104165;-81
2021/11/22 01:33:41;;;;;;;50.87;27.00;;;;;;;4.68;68.55;100049.91;126326;1099;104140;-82
2021/11/22 01:36:09;;;;;;;43.87;25.27;;;;;;;4.64;68.84;100048.88;126321;1099;104275;-81
2021/11/22 01:38:37;;;;;;;47.40;25.65;;;;;;;4.61;68.92;100042.59;126319;1099;104309;-82
2021/11/22 01:41:05;;;;;;;47.97;24.77;;;;;;;4.66;68.54;100044.63;126371;1099;104182;-82
2021/11/22 01:43:34;;;;;;;47.97;24.03;;;;;;;4.72;68.50;100043.16;126329;1099;104220;-81
2021/11/22 01:46:02;;;;;;;42.53;23.50;;;;;;;4.74;68.96;100045.03;126280;1099;104174;-80
2021/11/22 01:48:30;;;;;;;43.93;24.47;;;;;;;4.64;68.52;100041.08;126342;1098;104313;-82
2021/11/22 01:50:58;;;;;;;40.93;23.53;;;;;;;4.54;68.88;100043.11;126309;1099;104191;-80
2021/11/22 01:53:26;;;;;;;43.80;24.70;;;;;;;4.40;68.54;100048.45;126315;1099;104160;-82
2021/11/22 01:55:55;;;;;;;45.20;24.30;;;;;;;4.19;69.44;100050.81;126278;1099;104142;-81
2021/11/22 01:58:23;;;;;;;42.03;22.97;;;;;;;4.07;68.70;100053.63;126348;1099;104140;-81
2021/11/22 02:00:55;;;;;;;43.60;23.60;;;;;;;4.08;68.51;100054.52;126342;1098;104137;-82
2021/11/22 02:03:23;;;;;;;44.13;22.80;;;;;;;4.08;68.90;100062.30;126334;1099;104803;-82
2021/11/22 02:05:52;;;;;;;43.27;22.97;;;;;;;4.01;68.96;100058.48;126311;1099;104277;-82
2021/11/22 02:08:21;;;;;;;42.20;23.67;;;;;;;3.93;68.79;100051.98;126339;1099;104490;-82
2021/11/22 02:10:51;;;;;;;43.80;22.43;;;;;;;3.89;69.08;100053.50;126409;1099;104326;-82
2021/11/22 02:13:19;;;;;;;42.53;24.00;;;;;;;3.84;69.17;100051.48;126371;1099;104198;-82
2021/11/22 02:15:47;;;;;;;42.00;23.20;;;;;;;3.78;69.42;100054.62;126261;1098;104155;-82
2021/11/22 02:18:18;;;;;;;42.70;23.25;;;;;;;3.69;68.77;100048.91;126331;1099;104152;-82
2021/11/22 02:20:46;;;;;;;42.53;23.33;;;;;;;3.66;69.11;100061.72;126301;1099;104188;-83
2021/11/22 02:23:15;;;;;;;41.93;22.87;;;;;;;3.64;69.29;100060.75;126350;1099;104561;-82
2021/11/22 02:25:45;;;;;;;42.93;23.47;;;;;;;3.62;69.21;100060.66;126284;1099;104405;-81
2021/11/22 02:28:14;;;;;;;40.93;24.10;;;;;;;3.57;70.02;100059.52;126330;1099;104274;-81
2021/11/22 02:30:47;;;;;;;44.73;25.00;;;;;;;3.49;69.86;100066.87;126353;1099;104172;-83
2021/11/22 02:33:18;;;;;;;39.03;23.77;;;;;;;3.44;69.97;100060.50;126338;1099;104153;-81
2021/11/22 02:35:50;;;;;;;42.80;23.03;;;;;;;3.43;70.17;100061.33;126296;1097;104402;-82
2021/11/22 02:38:19;;;;;;;44.07;23.10;;;;;;;3.41;70.32;100062.91;126290;1099;104297;-82
2021/11/22 02:40:48;;;;;;;43.83;25.00;;;;;;;3.36;69.85;100059.17;126335;1099;104165;-83
2021/11/22 02:43:17;;;;;;;43.60;24.93;;;;;;;3.31;70.21;100060.63;126337;1099;104169;-81
2021/11/22 02:45:46;;;;;;;42.63;24.77;;;;;;;3.30;70.07;100066.60;126257;1099;104179;-82
2021/11/22 02:48:14;;;;;;;44.23;25.73;;;;;;;3.31;70.13;100065.80;126339;1099;104156;-81
2021/11/22 02:50:42;;;;;;;43.07;24.67;;;;;;;3.34;70.26;100068.58;126317;1096;104162;-83
2021/11/22 02:53:10;;;;;;;45.67;25.37;;;;;;;3.24;69.77;100075.83;126345;1096;104271;-82
2021/11/22 02:55:38;;;;;;;46.30;24.97;;;;;;;3.13;69.72;100074.31;126314;1096;104275;-82
2021/11/22 02:58:06;;;;;;;43.87;23.33;;;;;;;3.07;70.32;100079.14;126339;1099;104287;-82
2021/11/22 03:00:37;;;;;;;45.57;23.73;;;;;;;3.04;69.96;100078.95;126349;1099;104161;-82
2021/11/22 03:03:05;;;;;;;46.73;26.83;;;;;;;2.98;70.17;100081.19;126294;1099;104284;-83
2021/11/22 03:05:35;;;;;;;49.40;26.47;;;;;;;2.92;70.03;100086.00;126228;1099;104162;-82
2021/11/22 03:08:03;;;;;;;50.20;25.37;;;;;;;2.83;70.65;100091.52;126368;1096;104492;-83
2021/11/22 03:10:31;;;;;;;43.73;23.73;;;;;;;2.75;70.85;100088.47;126369;1096;104150;-83
2021/11/22 03:13:01;;;;;;;41.90;22.73;;;;;;;2.70;70.62;100089.90;126366;1096;104156;-83
2021/11/22 03:15:30;;;;;;;48.27;23.50;;;;;;;2.68;70.85;100087.22;126343;1097;104759;-82
2021/11/22 03:17:58;;;;;;;41.33;21.70;;;;;;;2.66;70.05;100088.80;126262;1098;104149;-82
2021/11/22 03:20:26;;;;;;;44.97;24.13;;;;;;;2.66;70.79;100082.73;126302;1100;104271;-83
2021/11/22 03:22:54;;;;;;;47.13;25.13;;;;;;;2.65;70.49;100086.11;126349;1098;104191;-82
2021/11/22 03:25:23;;;;;;;46.30;24.33;;;;;;;2.64;70.57;100084.34;126317;1099;104176;-82
2021/11/22 03:27:51;;;;;;;46.03;24.57;;;;;;;2.63;71.09;100093.82;126287;1096;104153;-83
2021/11/22 03:30:19;;;;;;;43.83;23.03;;;;;;;2.65;70.42;100099.06;126288;1099;104612;-81
2021/11/22 03:32:47;;;;;;;46.00;22.70;;;;;;;2.64;70.38;100099.89;126356;1096;104162;-82
2021/11/22 03:35:16;;;;;;;45.57;23.83;;;;;;;2.61;70.12;100103.17;126358;1096;104226;-82
2021/11/22 03:37:45;;;;;;;43.47;24.07;;;;;;;2.61;71.41;100097.11;126338;1099;104156;-83
2021/11/22 03:40:14;;;;;;;48.73;24.87;;;;;;;2.57;71.42;100106.40;126351;1099;104152;-82
2021/11/22 03:42:52;;;;;;;51.53;26.80;;;;;;;2.50;71.18;100102.52;126300;1099;104299;-82
2021/11/22 03:45:21;;;;;;;54.00;25.03;;;;;;;2.46;71.62;100104.83;126369;1099;104156;-82
2021/11/22 03:47:49;;;;;;;51.33;25.03;;;;;;;2.41;71.30;100112.30;126267;1096;104178;-82
2021/11/22 03:50:17;;;;;;;50.03;24.00;;;;;;;2.38;71.33;100113.82;126352;1096;104275;-81
2021/11/22 03:52:45;;;;;;;45.07;21.27;;;;;;;2.38;71.91;100116.41;126329;1096;104275;-82
2021/11/22 03:55:14;;;;;;;45.53;23.73;;;;;;;2.35;72.37;100124.87;126273;1099;104293;-81
2021/11/22 03:57:44;;;;;;;45.33;23.87;;;;;;;2.30;72.39;100116.81;126252;1099;104255;-83
2021/11/22 04:00:15;;;;;;;49.33;24.40;;;;;;;2.30;72.66;100128.87;126345;1097;104197;-82
2021/11/22 04:02:47;;;;;;;45.65;23.65;;;;;;;2.24;72.31;100128.49;126355;1099;104181;-83
2021/11/22 04:05:16;;;;;;;43.90;21.87;;;;;;;2.23;72.96;100127.61;126341;1099;104299;-82
2021/11/22 04:07:47;;;;;;;48.47;25.93;;;;;;;2.19;72.70;100129.91;126245;1099;104274;-82
2021/11/22 04:10:17;;;;;;;45.60;23.47;;;;;;;2.11;72.97;100135.48;126366;1099;104150;-81
2021/11/22 04:12:47;;;;;;;43.07;22.40;;;;;;;2.05;72.75;100137.68;126341;1099;104153;-81
2021/11/22 04:15:16;;;;;;;45.97;21.97;;;;;;;2.03;72.83;100141.87;126295;1099;104213;-82
2021/11/22 04:17:46;;;;;;;44.10;23.10;;;;;;;2.05;72.34;100144.56;126276;1099;104335;-82
2021/11/22 04:20:15;;;;;;;40.63;19.67;;;;;;;2.08;73.15;100140.46;126323;1099;104146;-82
2021/11/22 04:22:43;;;;;;;39.15;20.55;;;;;;;2.07;73.86;100146.46;126366;1099;104149;-83
2021/11/22 04:25:12;;;;;;;37.43;20.90;;;;;;;2.01;73.93;100148.66;126311;1099;104292;-82
2021/11/22 04:27:40;;;;;;;37.70;19.93;;;;;;;1.97;73.99;100150.13;126270;1099;104150;-82
2021/11/22 04:30:11;;;;;;;39.00;21.43;;;;;;;1.96;73.43;100152.62;126359;1099;104134;-82
2021/11/22 04:32:39;;;;;;;42.00;21.30;;;;;;;1.92;73.01;100163.59;126338;1098;104165;-82
2021/11/22 04:35:11;;;;;;;38.73;21.17;;;;;;;1.90;73.38;100158.31;126352;1099;104198;-82
2021/11/22 04:37:40;;;;;;;40.83;21.53;;;;;;;1.92;73.06;100163.59;126291;1099;104296;-82
2021/11/22 04:40:12;;;;;;;41.60;21.93;;;;;;;1.95;74.36;100172.44;126235;1099;104152;-82
2021/11/22 04:42:45;;;;;;;41.27;20.73;;;;;;;1.94;74.16;100172.34;126318;1099;104207;-83
2021/11/22 04:45:16;;;;;;;39.77;20.53;;;;;;;1.93;73.41;100181.80;126277;1099;104322;-82
2021/11/22 04:47:50;;;;;;;42.97;20.73;;;;;;;1.96;73.80;100184.59;126254;1099;104195;-82
2021/11/22 04:50:21;;;;;;;37.40;20.27;;;;;;;2.01;73.94;100179.71;126207;1099;104245;-83
2021/11/22 04:52:52;;;;;;;38.83;19.60;;;;;;;2.02;74.40;100198.71;126369;1099;104147;-83
2021/11/22 04:55:22;;;;;;;37.17;19.77;;;;;;;2.02;73.72;100189.24;126368;1099;104634;-82
2021/11/22 04:57:52;;;;;;;40.60;21.40;;;;;;;2.06;73.99;100186.07;126229;1098;104140;-82
2021/11/22 05:00:24;;;;;;;37.07;19.53;;;;;;;2.09;73.80;100187.97;126280;1099;104203;-80
2021/11/22 05:02:54;;;;;;;38.60;20.90;;;;;;;2.09;73.69;100193.15;126264;1099;105281;-81
2021/11/22 05:05:27;;;;;;;37.33;19.97;;;;;;;2.09;74.38;100190.56;126341;1099;104284;-81
2021/11/22 05:07:56;;;;;;;37.93;19.20;;;;;;;2.06;74.02;100188.66;126334;1099;104223;-80
2021/11/22 05:10:28;;;;;;;41.50;20.07;;;;;;;2.06;73.96;100192.95;126229;1099;104213;-82
2021/11/22 05:12:57;;;;;;;35.90;19.20;;;;;;;2.08;73.73;100189.64;126351;1099;104182;-82
2021/11/22 05:15:26;;;;;;;42.03;19.83;;;;;;;2.13;73.88;100201.17;126256;1098;104153;-82
2021/11/22 05:17:54;;;;;;;35.80;18.47;;;;;;;2.14;74.19;100194.33;126188;1099;105044;-82
2021/11/22 05:20:22;;;;;;;37.27;18.07;;;;;;;2.15;74.99;100206.45;126084;1099;104181;-81
2021/11/22 05:22:51;;;;;;;33.17;18.13;;;;;;;2.08;74.84;100206.87;126151;1099;104149;-81
2021/11/22 05:25:19;;;;;;;34.70;19.07;;;;;;;2.04;74.94;100212.64;126188;1099;104252;-81
2021/11/22 05:27:47;;;;;;;32.57;18.30;;;;;;;1.98;75.04;100216.63;126208;1099;104582;-81
2021/11/22 05:30:15;;;;;;;33.00;18.90;;;;;;;1.94;75.13;100218.91;126196;1099;104229;-80
2021/11/22 05:32:44;;;;;;;34.10;17.20;;;;;;;1.93;75.54;100220.62;126175;1099;104217;-81
2021/11/22 05:35:12;;;;;;;35.87;17.50;;;;;;;1.89;75.27;100217.73;126189;1099;104201;-81
2021/11/22 05:37:48;;;;;;;34.67;18.43;;;;;;;1.88;75.38;100226.27;126178;1099;104159;-82
2021/11/22 05:40:20;;;;;;;31.27;16.07;;;;;;;1.87;74.76;100224.47;126115;1099;104399;-82
2021/11/22 05:42:50;;;;;;;39.07;19.00;;;;;;;1.86;76.15;100239.11;126205;1098;104305;-82
2021/11/22 05:45:20;;;;;;;31.73;17.70;;;;;;;1.88;75.57;100242.69;126165;1099;104165;-82
2021/11/22 05:47:51;;;;;;;36.57;17.93;;;;;;;1.92;75.94;100248.98;126196;1099;104264;-81
2021/11/22 05:50:22;;;;;;;31.70;18.00;;;;;;;1.92;75.53;100251.56;126141;1099;104152;-82
2021/11/22 06:14:57;;;;;;;36.63;18.13;;;;;;;2.12;76.20;100287.42;125127;1102;104210;-80
2021/11/22 06:17:30;;;;;;;33.03;18.37;;;;;;;2.20;76.93;100292.18;125135;1102;104159;-82
2021/11/22 06:20:03;;;;;;;32.97;17.97;;;;;;;2.24;76.81;100289.89;125158;1102;104162;-83
2021/11/22 06:22:40;;;;;;;33.70;18.90;;;;;;;2.31;76.75;100297.28;125184;1102;104310;-84
2021/11/22 06:25:10;;;;;;;;;;;;;;;2.37;76.66;100301.05;125238;1102;107887;-82
2021/11/22 06:27:48;;;;;;;37.27;18.80;;;;;;;2.44;77.22;100306.73;125135;1102;104153;-82
2021/11/22 06:30:21;;;;;;;35.50;18.20;;;;;;;2.51;76.89;100316.71;125206;1102;104150;-83
2021/11/22 06:33:23;;;;;;;35.13;18.53;;;;;;;2.56;77.31;100316.13;125186;1102;104159;-83
2021/11/22 06:35:56;;;;;;;33.13;18.10;;;;;;;2.62;76.63;100319.11;125191;1102;117431;-84
2021/11/22 06:38:38;;;;;;;33.17;16.97;;;;;;;2.68;77.32;100314.29;125110;1102;104156;-83
2021/11/22 06:41:13;;;;;;;37.10;18.57;;;;;;;2.74;76.94;100309.50;125211;1102;104136;-84
2021/11/22 06:43:50;;;;;;;31.70;16.70;;;;;;;2.86;76.68;100318.05;125052;1102;104150;-84
2021/11/22 06:46:24;;;;;;;33.40;18.03;;;;;;;3.03;76.79;100318.24;125101;1102;104307;-81
2021/11/22 06:48:57;;;;;;;35.93;19.40;;;;;;;3.20;76.71;100315.00;125258;1099;104223;-82
2021/11/22 06:51:35;;;;;;;34.10;18.10;;;;;;;3.32;77.04;100314.87;125224;1101;104243;-81
2021/11/22 06:54:12;;;;;;;35.13;19.03;;;;;;;3.44;76.59;100313.83;125254;1099;104182;-82
2021/11/22 06:56:48;;;;;;;34.90;19.63;;;;;;;3.58;76.20;100321.66;126035;1099;108075;-82
2021/11/22 06:59:35;;;;;;;43.40;21.27;;;;;;;3.72;75.70;100314.67;126097;1099;104155;-83
2021/11/22 07:02:14;;;;;;;40.67;22.13;;;;;;;3.89;76.80;100322.59;125922;1099;104153;-78
2021/11/22 07:04:47;;;;;;;36.63;20.50;;;;;;;3.98;76.71;100327.44;126034;1099;102736;-81
2021/11/22 07:07:24;;;;;;;37.07;18.80;;;;;;;4.02;76.20;100324.20;125152;1102;104169;-80
2021/11/22 07:09:55;;;;;;;;;;;;;;;4.03;76.54;100320.81;125268;1099;104223;-80
2021/11/22 07:12:31;;;;;;;38.13;19.73;;;;;;;4.07;76.74;100327.98;125335;1099;104159;-81
2021/11/22 07:15:05;;;;;;;38.47;20.43;;;;;;;4.14;76.71;100325.84;125931;1099;104266;-79
2021/11/22 07:17:38;;;;;;;39.77;20.20;;;;;;;4.22;76.73;100330.56;125231;1099;104175;-84
2021/11/22 07:20:49;;;;;;;37.27;20.60;;;;;;;4.30;76.07;100324.10;126121;1099;104168;-81
2021/11/22 07:23:53;;;;;;;41.20;21.70;;;;;;;4.44;77.05;100319.70;125128;1102;104168;-79
2021/11/22 07:30:22;;;;;;;37.03;19.53;;;;;;;4.74;76.20;100324.88;125092;1102;104194;-81
2021/11/22 07:33:05;;;;;;;32.77;18.03;;;;;;;4.89;76.72;100325.70;124941;1102;103999;-81
2021/11/22 07:35:40;;;;;;;38.83;20.10;;;;;;;5.04;76.14;100326.55;125228;1102;105478;-81
2021/11/22 07:41:23;;;;;;;38.63;19.77;;;;;;;5.34;76.09;100321.23;125407;1101;104261;-80
2021/11/22 07:43:55;;;;;;;42.73;21.70;;;;;;;5.47;76.26;100327.09;126297;1099;104243;-81
2021/11/22 07:46:43;;;;;;;40.50;23.00;;;;;;;5.60;76.00;100323.45;125179;1101;104237;-82
2021/11/22 07:49:20;;;;;;;41.93;21.00;;;;;;;5.74;76.02;100335.48;125132;1102;104162;-82
2021/11/22 07:52:09;;;;;;;41.97;22.03;;;;;;;5.86;75.74;100333.52;125094;1102;104159;-83
2021/11/22 07:54:46;;;;;;;39.03;20.70;;;;;;;6.00;75.86;100331.66;125208;1102;102077;-82
2021/11/22 07:57:30;;;;;;;;;;;;;;;;;;;;;
2021/11/22 08:00:04;;;;;;;34.55;18.10;;;;;;;6.19;75.45;100325.66;124939;1105;104667;-82
2021/11/22 08:02:56;;;;;;;38.83;18.47;;;;;;;6.32;76.13;100331.49;125002;1105;104360;-84
2021/11/22 08:05:36;;;;;;;41.13;19.87;;;;;;;6.45;75.46;100337.39;125022;1105;104396;-85
2021/11/22 08:08:40;;;;;;;39.00;20.33;;;;;;;6.60;75.47;100333.74;125003;1105;104255;-85
2021/11/22 08:14:15;;;;;;;36.00;18.63;;;;;;;6.92;75.38;100330.09;124856;1105;104147;-81
2021/11/22 08:17:00;;;;;;;36.47;19.67;;;;;;;7.08;75.35;100339.52;124641;1105;104403;-83
2021/11/22 08:19:38;;;;;;;39.42;18.92;;;;;;;7.28;75.25;100344.80;125161;1102;104267;-87
2021/11/22 08:22:13;;;;;;;39.53;19.87;;;;;;;7.42;74.86;100341.09;125243;1102;104182;-82
2021/11/22 08:24:54;;;;;;;36.83;18.90;;;;;;;7.59;74.70;100354.00;125143;1102;104548;-82
2021/11/22 08:27:42;;;;;;;34.17;18.03;;;;;;;7.73;74.61;100352.94;125014;1102;103674;-84
2021/11/22 08:30:22;;;;;;;37.93;17.50;;;;;;;7.88;74.70;100357.92;125246;1102;104437;-84
2021/11/22 08:33:01;;;;;;;32.07;16.33;;;;;;;8.03;74.43;100355.98;125336;1099;104136;-84
2021/11/22 08:35:36;;;;;;;37.30;18.57;;;;;;;8.21;74.62;100360.22;125328;1100;104207;-82
2021/11/22 08:38:29;;;;;;;33.47;17.53;;;;;;;8.38;74.37;100358.33;125140;1102;104211;-83
2021/11/22 08:41:06;;;;;;;34.73;19.23;;;;;;;8.53;74.34;100356.39;124934;1103;104354;-81
2021/11/22 08:43:50;;;;;;;43.77;21.17;;;;;;;8.66;74.26;100364.74;124991;1102;104179;-82
2021/11/22 08:46:23;;;;;;;38.77;18.40;;;;;;;8.79;74.43;100354.84;124988;1102;102133;-82
2021/11/22 08:48:59;;;;;;;38.50;19.73;;;;;;;8.91;73.59;100349.22;124955;1105;104217;-83
2021/11/22 08:51:32;;;;;;;41.33;20.37;;;;;;;9.06;73.50;100355.89;124997;1105;104268;-82
2021/11/22 08:54:25;;;;;;;39.18;19.90;;;;;;;9.18;73.21;100352.02;124963;1102;104184;-81
2021/11/22 08:57:15;;;;;;;35.87;17.97;;;;;;;9.32;72.68;100352.55;124988;1105;104149;-80
2021/11/22 08:59:48;;;;;;;33.40;16.73;;;;;;;9.49;72.73;100350.58;124999;1105;108098;-78
2021/11/22 09:02:25;;;;;;;28.98;15.60;;;;;;;9.62;72.23;100346.68;124993;1105;104511;-81
2021/11/22 09:05:05;;;;;;;28.23;14.07;;;;;;;9.77;72.83;100353.31;124958;1105;104644;-80
2021/11/22 09:07:37;;;;;;;26.73;14.23;;;;;;;9.88;71.05;100352.87;124968;1106;104275;-80
2021/11/22 09:10:23;;;;;;;29.03;14.13;;;;;;;10.00;71.90;100347.20;124947;1105;104223;-81
2021/11/22 09:12:57;;;;;;;29.47;15.00;;;;;;;10.15;71.44;100345.94;125044;1105;104354;-79
2021/11/22 09:15:36;;;;;;;29.70;15.37;;;;;;;10.24;71.17;100351.50;125014;1102;104440;-82
2021/11/22 09:18:14;;;;;;;27.40;14.07;;;;;;;10.34;70.67;100352.73;124899;1105;104875;-82
2021/11/22 09:20:48;;;;;;;26.00;14.27;;;;;;;10.38;71.01;100350.27;125252;1102;104424;-78
2021/11/22 09:23:21;;;;;;;25.43;12.20;;;;;;;10.45;70.18;100351.36;124996;1102;104332;-78
2021/11/22 09:25:55;;;;;;;27.20;13.80;;;;;;;10.50;69.38;100347.19;124911;1102;104316;-79
2021/11/22 09:28:29;;;;;;;30.73;14.50;;;;;;;10.59;69.76;100342.22;125041;1102;104223;-80
2021/11/22 09:31:02;;;;;;;29.97;14.93;;;;;;;10.63;69.83;100340.61;125255;1103;104278;-80
2021/11/22 09:33:46;;;;;;;29.00;14.40;;;;;;;10.70;69.77;100339.94;125221;1102;102051;-82
2021/11/22 09:36:29;;;;;;;28.07;14.63;;;;;;;10.82;69.84;100338.58;124890;1102;104338;-80
2021/11/22 09:39:10;;;;;;;26.93;14.60;;;;;;;10.91;68.98;100341.50;124911;1102;104300;-80
2021/11/22 09:41:47;;;;;;;27.23;14.07;;;;;;;10.94;68.13;100338.97;124995;1105;105449;-79
2021/11/22 09:44:30;;;;;;;25.67;12.53;;;;;;;10.96;67.49;100335.53;124991;1105;104203;-81
2021/11/22 09:47:28;;;;;;;23.50;12.67;;;;;;;10.95;67.99;100317.11;125059;1105;104478;-86
2021/11/22 09:50:00;;;;;;;;;;;;;;;11.08;65.67;100345.54;125082;1102;104235;-81
2021/11/22 09:52:59;;;;;;;22.90;12.37;;;;;;;11.11;63.76;100331.59;125352;1102;104305;-83
2021/11/22 09:55:42;;;;;;;21.10;11.25;;;;;;;11.17;64.98;100323.91;124980;1103;104186;-80
2021/11/22 09:58:21;;;;;;;20.02;10.55;;;;;;;11.23;64.91;100320.58;124995;1106;104447;-80
2021/11/22 10:00:57;;;;;;;21.30;11.20;;;;;;;11.27;63.55;100325.09;124996;1102;108474;-79
2021/11/22 10:03:35;;;;;;;23.30;11.90;;;;;;;11.26;60.70;100333.81;125287;1102;104673;-82
2021/11/22 10:06:19;;;;;;;26.10;12.93;;;;;;;11.35;63.23;100328.83;125342;1102;104187;-83
2021/11/22 10:09:40;;;;;;;24.43;11.67;;;;;;;11.45;63.73;100320.39;125084;1105;104149;-83
2021/11/22 10:12:24;;;;;;;23.37;11.50;;;;;;;11.51;63.26;100324.91;124999;1102;118793;-81
2021/11/22 10:15:03;;;;;;;25.00;11.60;;;;;;;11.55;62.76;100320.66;125326;1102;104281;-82
2021/11/22 10:17:39;;;;;;;21.27;10.77;;;;;;;11.57;60.75;100313.70;125157;1102;104182;-81
2021/11/22 10:20:24;;;;;;;21.77;11.23;;;;;;;11.62;62.99;100315.59;125336;1102;104209;-82
2021/11/22 10:23:03;;;;;;;19.77;10.30;;;;;;;11.63;62.87;100314.75;125321;1102;104181;-81
2021/11/22 10:25:41;;;;;;;22.03;11.50;;;;;;;11.60;60.88;100311.16;125224;1102;104425;-78
2021/11/22 10:28:24;;;;;;;20.07;10.60;;;;;;;11.63;60.92;100317.38;125345;1102;102235;-84
2021/11/22 10:31:04;;;;;;;22.77;12.03;;;;;;;11.66;62.04;100311.33;125273;1102;104185;-82
2021/11/22 10:33:42;;;;;;;22.57;11.43;;;;;;;11.66;61.88;100309.58;125339;1102;109305;-81
2021/11/22 10:36:21;;;;;;;21.27;11.10;;;;;;;11.71;62.30;100309.72;125335;1102;104348;-81
2021/11/22 10:42:27;;;;;;;23.33;11.13;;;;;;;11.77;62.15;100311.63;124933;1105;104134;-82
2021/11/22 10:45:22;;;;;;;22.07;10.10;;;;;;;11.80;61.11;100312.60;124940;1106;104322;-81
2021/11/22 10:48:24;;;;;;;24.33;11.70;;;;;;;11.84;62.39;100310.94;125011;1102;104130;-81
2021/11/22 10:51:22;;;;;;;21.70;10.10;;;;;;;11.91;61.79;100306.76;125031;1105;104194;-82
2021/11/22 10:54:10;;;;;;;;;;;;;;;11.92;61.83;100305.89;125098;1102;118468;-84
2021/11/22 10:56:56;;;;;;;19.87;9.40;;;;;;;11.91;60.47;100299.75;125052;1102;104380;-84
2021/11/22 10:59:34;;;;;;;21.23;10.37;;;;;;;11.95;61.60;100295.48;125195;1102;104351;-81
2021/11/22 11:02:16;;;;;;;21.23;10.57;;;;;;;11.98;61.54;100300.83;125221;1102;104226;-81
2021/11/22 11:04:56;;;;;;;20.43;10.40;;;;;;;12.00;61.02;100293.89;125285;1102;102776;-80
2021/11/22 11:07:32;;;;;;;20.60;10.13;;;;;;;11.99;60.88;100292.98;125192;1102;104537;-79
2021/11/22 11:10:05;;;;;;;22.75;10.98;;;;;;;11.98;60.66;100283.34;125206;1102;103990;-79
2021/11/22 11:12:54;;;;;;;20.93;10.57;;;;;;;11.99;60.00;100286.84;125122;1102;104776;-81
2021/11/22 11:19:00;;;;;;;22.27;10.00;;;;;;;11.98;59.23;100282.42;124992;1102;104194;-79
2021/11/22 11:22:07;;;;;;;22.13;10.37;;;;;;;11.97;59.90;100278.91;125092;1099;104171;-77
2021/11/22 11:24:41;;;;;;;22.33;10.30;;;;;;;11.98;59.35;100282.42;125540;1099;108948;-78
2021/11/22 11:27:18;;;;;;;22.30;10.53;;;;;;;11.98;59.00;100275.45;125753;1099;104163;-79
2021/11/22 11:29:54;;;;;;;17.30;8.77;;;;;;;11.99;58.20;100282.46;125981;1099;104210;-79
2021/11/22 11:32:28;;;;;;;17.90;8.25;;;;;;;12.00;58.71;100280.74;125178;1099;104210;-80
2021/11/22 11:35:13;;;;;;;20.90;8.67;;;;;;;12.00;58.22;100275.48;126066;1099;118906;-81
2021/11/22 11:38:08;;;;;;;21.57;9.87;;;;;;;11.96;57.94;100282.38;125296;1099;104312;-81
2021/11/22 11:41:05;;;;;;;18.98;7.90;;;;;;;11.94;57.46;100281.46;125338;1098;104239;-83
2021/11/22 11:44:00;;;;;;;22.67;10.90;;;;;;;11.92;57.86;100275.28;125318;1099;105633;-80
2021/11/22 11:47:00;;;;;;;21.27;8.70;;;;;;;11.92;57.29;100282.22;125341;1099;104676;-81
2021/11/22 11:49:40;;;;;;;21.60;9.27;;;;;;;11.95;57.69;100282.34;125346;1099;104296;-80
2021/11/22 11:52:26;;;;;;;17.57;7.87;;;;;;;11.95;57.77;100285.88;125336;1099;104818;-80
2021/11/22 11:55:16;;;;;;;18.87;8.40;;;;;;;11.94;57.61;100286.72;126080;1099;104207;-80
2021/11/22 11:58:26;;;;;;;18.27;8.10;;;;;;;11.93;57.63;100282.30;126286;1099;104149;-79
2021/11/22 12:01:03;;;;;;;18.47;8.43;;;;;;;11.91;57.76;100283.97;126123;1099;104307;-79
2021/11/22 12:04:12;;;;;;;19.73;8.93;;;;;;;11.92;57.86;100283.17;125232;1102;105646;-80
2021/11/22 12:07:00;;;;;;;19.33;8.43;;;;;;;11.91;57.94;100288.36;125137;1102;104395;-81
2021/11/22 12:09:43;;;;;;;17.53;7.20;;;;;;;11.92;57.17;100291.06;125264;1102;104525;-80
2021/11/22 12:13:17;;;;;;;17.43;7.50;;;;;;;11.94;56.75;100289.34;125305;1102;104306;-81
2021/11/22 12:16:29;;;;;;;15.93;7.10;;;;;;;11.95;56.81;100290.23;125334;1100;104272;-81
2021/11/22 12:19:32;;;;;;;15.97;6.47;;;;;;;11.97;56.33;100288.55;125241;1102;104214;-79
2021/11/22 12:22:39;;;;;;;;;;;;;;;;;;;;;